Time;durP1;ratioP1;P1;durP2;ratioP2;P2;SDS_P1;SDS_P2;PMS_P1;PMS_P2;Temp;Humidity;BMP_temperature;BMP_pressure;BME280_temperature;BME280_humidity;BME280_pressure;Samples;Min_cycle;Max_cycle;Signal;HPM_P1;HPM_P2
2022/01/09 00:01:26;;;;;;;80.03;28.47;;;-3276.50;66.00;;;;;;5007816;28;20034;-89
2022/01/09 00:03:52;;;;;;;102.33;32.90;;;-3276.60;66.10;;;;;;5000694;28;20037;-88
2022/01/09 00:06:18;;;;;;;94.03;31.27;;;-3276.60;66.10;;;;;;5000286;28;20026;-89
2022/01/09 00:08:51;;;;;;;87.00;28.67;;;-3276.70;66.10;;;;;;5017185;28;20088;-88
2022/01/09 00:11:24;;;;;;;93.20;33.07;;;-3276.70;66.10;;;;;;4999861;28;20022;-89
2022/01/09 00:13:50;;;;;;;100.53;32.20;;;-3276.70;66.10;;;;;;5000412;28;20014;-89
2022/01/09 00:16:23;;;;;;;;;;;0.00;66.00;;;;;;5017720;28;20120;-89
2022/01/09 00:18:50;;;;;;;104.83;33.97;;;0.00;66.10;;;;;;5000052;28;19936;-88
2022/01/09 00:21:16;;;;;;;106.37;35.63;;;0.10;65.70;;;;;;4999593;28;20140;-88
2022/01/09 00:23:42;;;;;;;;;;;0.10;65.80;;;;;;5000726;28;20058;-88
2022/01/09 00:26:08;;;;;;;95.40;33.70;;;0.10;65.90;;;;;;4999837;28;19963;-89
2022/01/09 00:28:34;;;;;;;;;;;0.20;65.60;;;;;;5001045;28;20022;-89
2022/01/09 00:30:59;;;;;;;111.93;34.27;;;0.20;65.70;;;;;;5000520;28;19905;-89
2022/01/09 00:33:25;;;;;;;;;;;0.30;65.50;;;;;;5000780;28;20081;-89
2022/01/09 00:35:51;;;;;;;121.40;37.43;;;0.30;65.70;;;;;;5000759;28;19905;-89
2022/01/09 00:38:17;;;;;;;;;;;0.30;65.50;;;;;;5000991;28;20057;-89
2022/01/09 00:40:43;;;;;;;134.27;38.23;;;0.20;65.70;;;;;;5000495;28;20362;-89
2022/01/09 00:43:09;;;;;;;;;;;0.20;65.60;;;;;;5001189;28;20032;-88
2022/01/09 00:45:43;;;;;;;129.70;38.60;;;0.10;65.90;;;;;;4998690;28;20362;-89
2022/01/09 00:48:10;;;;;;;130.83;39.40;;;0.00;65.90;;;;;;4999397;28;20066;-88
2022/01/09 00:50:37;;;;;;;141.53;39.83;;;0.00;66.20;;;;;;5000185;28;20050;-90
2022/01/09 00:53:06;;;;;;;130.33;38.50;;;-3276.70;66.40;;;;;;5000007;28;20022;-87
2022/01/09 00:55:32;;;;;;;133.13;40.13;;;-3276.70;66.70;;;;;;4999899;28;20026;-89
2022/01/09 00:57:57;;;;;;;;;;;-3276.70;66.80;;;;;;5000122;28;20086;-89
2022/01/09 01:00:23;;;;;;;99.40;33.63;;;0.00;66.80;;;;;;4999761;28;19905;-88
2022/01/09 01:02:51;;;;;;;109.55;37.00;;;0.00;66.50;;;;;;4998008;28;20464;-90
2022/01/09 01:05:18;;;;;;;120.80;37.40;;;0.00;66.60;;;;;;4996848;28;20018;-88
2022/01/09 01:07:43;;;;;;;108.43;35.70;;;0.00;66.70;;;;;;4979199;28;20038;-89
2022/01/09 01:10:09;;;;;;;;;;;0.00;66.80;;;;;;4980591;28;20052;-90
2022/01/09 01:12:35;;;;;;;95.60;33.97;;;0.00;67.00;;;;;;4996917;28;19936;-89
2022/01/09 01:15:01;;;;;;;105.82;33.72;;;0.00;66.70;;;;;;4995605;28;20049;-88
2022/01/09 01:17:27;;;;;;;103.90;32.67;;;0.00;66.90;;;;;;4981670;28;20037;-89
2022/01/09 01:19:53;;;;;;;;;;;0.00;67.00;;;;;;4999442;28;20042;-88
2022/01/09 01:22:19;;;;;;;80.97;29.10;;;-3276.70;67.10;;;;;;4999517;28;19913;-90
2022/01/09 01:24:46;;;;;;;;;;;-3276.70;66.80;;;;;;4999703;28;20026;-90
2022/01/09 01:27:12;;;;;;;174.13;52.58;;;0.00;67.00;;;;;;5002532;28;20388;-88
2022/01/09 01:29:38;;;;;;;87.90;30.92;;;0.00;66.80;;;;;;5002652;28;20017;-89
2022/01/09 01:32:04;;;;;;;;;;;-3276.70;66.90;;;;;;5003439;28;20438;-88
2022/01/09 01:34:29;;;;;;;75.97;27.53;;;-3276.70;67.00;;;;;;5004033;28;19964;-88
2022/01/09 01:36:55;;;;;;;;;;;-3276.70;66.80;;;;;;5003989;28;20018;-88
2022/01/09 01:39:20;;;;;;;79.47;29.80;;;0.00;66.90;;;;;;5003636;28;20398;-88
2022/01/09 01:41:47;;;;;;;72.45;29.55;;;0.00;66.70;;;;;;5003756;28;20054;-89
2022/01/09 01:44:13;;;;;;;;;;;0.00;66.90;;;;;;5002729;28;20483;-89
2022/01/09 01:46:40;;;;;;;77.70;27.93;;;0.00;67.00;;;;;;5002922;28;19909;-89
2022/01/09 01:49:14;;;;;;;72.23;29.07;;;0.00;66.80;;;;;;5003258;28;20022;-88
2022/01/09 01:51:44;;;;;;;76.17;30.13;;;0.00;66.90;;;;;;5023155;28;20482;-89
2022/01/09 01:54:13;;;;;;;77.73;29.37;;;0.00;67.00;;;;;;5022408;28;20117;-89
2022/01/09 01:56:39;;;;;;;85.40;30.87;;;0.00;67.00;;;;;;5022365;28;20101;-89
2022/01/09 01:59:05;;;;;;;77.43;29.47;;;0.00;67.10;;;;;;5022313;28;20017;-88
2022/01/09 02:01:31;;;;;;;;;;;0.10;67.10;;;;;;5009100;28;20109;-88
2022/01/09 02:03:57;;;;;;;75.33;28.43;;;0.10;67.10;;;;;;5019782;28;19949;-89
2022/01/09 02:06:23;;;;;;;80.45;28.90;;;0.20;66.80;;;;;;5019471;28;20056;-88
2022/01/09 02:08:49;;;;;;;69.70;28.67;;;0.30;66.80;;;;;;5019133;28;20433;-86
2022/01/09 02:11:14;;;;;;;;;;;0.30;66.90;;;;;;5022460;28;20025;-89
2022/01/09 02:13:41;;;;;;;68.80;28.97;;;0.20;67.00;;;;;;5020943;28;19909;-87
2022/01/09 02:16:16;;;;;;;79.83;28.80;;;0.30;66.70;;;;;;5022372;28;20532;-87
2022/01/09 02:18:45;;;;;;;74.40;28.13;;;0.30;66.80;;;;;;5022583;28;20029;-89
2022/01/09 02:21:12;;;;;;;73.03;29.03;;;0.30;66.90;;;;;;5014743;28;20056;-89
2022/01/09 02:23:41;;;;;;;74.37;29.13;;;0.30;67.00;;;;;;5022224;28;20028;-86
2022/01/09 02:26:16;;;;;;;86.07;32.43;;;0.30;67.10;;;;;;5021872;28;20018;-88
2022/01/09 02:28:41;;;;;;;80.87;30.53;;;0.30;67.10;;;;;;5021366;28;20024;-89
2022/01/09 02:31:09;;;;;;;;;;;0.30;67.10;;;;;;5021693;28;20017;-89
2022/01/09 02:33:35;;;;;;;84.00;29.80;;;0.40;67.20;;;;;;5021221;28;19909;-88
2022/01/09 02:36:00;;;;;;;;;;;0.40;66.90;;;;;;5021620;28;20025;-87
2022/01/09 02:38:26;;;;;;;82.33;29.67;;;0.40;67.00;;;;;;5020881;28;19908;-88
2022/01/09 02:40:54;;;;;;;70.43;30.30;;;0.40;66.80;;;;;;5021912;28;20048;-89
2022/01/09 02:43:21;;;;;;;83.63;32.73;;;0.40;67.00;;;;;;5021725;28;20056;-89
2022/01/09 02:45:53;;;;;;;79.43;31.17;;;0.40;67.10;;;;;;5021318;28;20089;-89
2022/01/09 02:48:20;;;;;;;79.90;31.53;;;0.40;67.20;;;;;;5022213;28;20017;-88
2022/01/09 02:51:00;;;;;;;90.33;34.90;;;0.40;67.30;;;;;;5021562;28;20042;-89
2022/01/09 02:53:29;;;;;;;118.13;44.03;;;0.40;67.30;;;;;;5021891;28;20021;-89
2022/01/09 02:55:55;;;;;;;93.73;35.03;;;0.40;67.40;;;;;;5021269;28;20508;-88
2022/01/09 02:58:22;;;;;;;;;;;0.40;67.50;;;;;;5022117;28;20021;-89
2022/01/09 03:00:47;;;;;;;86.80;33.40;;;0.40;67.60;;;;;;5021804;28;19912;-89
2022/01/09 03:03:13;;;;;;;91.97;33.42;;;0.40;67.30;;;;;;5021985;28;20025;-90
2022/01/09 03:05:39;;;;;;;82.37;31.10;;;0.50;67.40;;;;;;5021488;28;20025;-89
2022/01/09 03:08:05;;;;;;;;;;;0.40;67.50;;;;;;5038904;28;20032;-89
2022/01/09 03:10:30;;;;;;;66.70;30.63;;;0.50;67.60;;;;;;5021163;28;19912;-89
2022/01/09 03:12:57;;;;;;;;;;;0.50;67.30;;;;;;5021963;28;20029;-88
2022/01/09 03:15:24;;;;;;;78.83;33.40;;;0.50;67.50;;;;;;5020480;28;19889;-89
2022/01/09 03:17:50;;;;;;;87.27;33.77;;;0.50;67.20;;;;;;5020766;28;20026;-88
2022/01/09 03:20:17;;;;;;;;;;;0.50;67.40;;;;;;5021378;28;20030;-88
2022/01/09 03:22:43;;;;;;;;;;;0.50;67.60;;;;;;5020607;28;19936;-87
2022/01/09 03:25:09;;;;;;;76.97;30.67;;;0.50;67.40;;;;;;5020288;28;19909;-89
2022/01/09 03:27:39;;;;;;;;;;;0.50;67.20;;;;;;5021353;28;20025;-89
2022/01/09 03:30:10;;;;;;;76.73;32.10;;;0.50;67.40;;;;;;5020576;28;20320;-89
2022/01/09 03:32:40;;;;;;;81.57;33.53;;;0.50;67.20;;;;;;5021654;28;20116;-89
2022/01/09 03:35:09;;;;;;;84.50;31.80;;;0.50;67.50;;;;;;5026231;28;20020;-90
2022/01/09 03:37:36;;;;;;;77.27;33.07;;;0.50;67.60;;;;;;5040870;28;20032;-89
2022/01/09 03:40:03;;;;;;;92.93;34.73;;;0.50;67.80;;;;;;5040552;28;20025;-89
2022/01/09 03:42:29;;;;;;;92.93;36.10;;;0.50;67.90;;;;;;5026922;28;20037;-89
2022/01/09 03:44:54;;;;;;;88.05;37.42;;;0.50;67.90;;;;;;5021516;28;20029;-89
2022/01/09 03:47:20;;;;;;;89.03;36.95;;;0.50;68.00;;;;;;5020702;28;20025;-89
2022/01/09 03:49:45;;;;;;;;;;;0.50;68.10;;;;;;5020983;28;20159;-89
2022/01/09 03:52:13;;;;;;;93.27;36.43;;;0.50;68.10;;;;;;5013563;28;19913;-89
2022/01/09 03:54:39;;;;;;;93.87;38.13;;;0.50;67.80;;;;;;5019917;28;20433;-89
2022/01/09 03:57:04;;;;;;;;;;;0.40;67.90;;;;;;5020626;28;20032;-87
2022/01/09 03:59:30;;;;;;;102.63;38.23;;;0.40;68.10;;;;;;5020165;28;19897;-88
2022/01/09 04:01:55;;;;;;;92.60;35.50;;;0.40;67.90;;;;;;5020565;28;20083;-87
2022/01/09 04:04:24;;;;;;;;;;;0.40;68.10;;;;;;5021211;28;20017;-89
2022/01/09 04:06:50;;;;;;;89.90;33.23;;;0.30;68.20;;;;;;5020122;28;20000;-88
2022/01/09 04:09:38;;;;;;;91.53;32.13;;;0.30;68.00;;;;;;5021436;28;20022;-87
2022/01/09 04:12:15;;;;;;;83.80;33.60;;;0.20;68.30;;;;;;5019703;28;20033;-89
2022/01/09 04:14:49;;;;;;;;;;;0.10;68.60;;;;;;5019665;28;20024;-88
2022/01/09 04:17:37;;;;;;;87.80;32.83;;;0.00;68.80;;;;;;5019753;28;19912;-89
2022/01/09 04:20:03;;;;;;;87.10;32.43;;;0.00;68.60;;;;;;5037408;28;20076;-90
2022/01/09 04:22:28;;;;;;;84.07;33.83;;;-3276.70;68.90;;;;;;5019529;28;20060;-89
2022/01/09 04:24:54;;;;;;;;;;;-3276.50;69.20;;;;;;5019784;28;20025;-90
2022/01/09 04:27:19;;;;;;;81.33;32.47;;;-3276.40;69.40;;;;;;5019472;28;19908;-89
2022/01/09 04:29:45;;;;;;;90.50;34.22;;;-3276.30;69.20;;;;;;5019027;28;20359;-90
2022/01/09 04:32:11;;;;;;;;;;;-3276.20;69.50;;;;;;5019932;28;20024;-86
2022/01/09 04:34:36;;;;;;;86.07;31.30;;;-3276.10;69.60;;;;;;5019384;28;19928;-87
2022/01/09 04:37:02;;;;;;;;;;;-3276.00;69.40;;;;;;5020422;28;20025;-87
2022/01/09 04:39:28;;;;;;;78.53;32.70;;;-3275.90;69.70;;;;;;5019797;28;19954;-88
2022/01/09 04:41:54;;;;;;;;;;;-3275.80;69.50;;;;;;5019633;28;20025;-89
2022/01/09 04:44:20;;;;;;;98.17;34.20;;;-3275.70;69.70;;;;;;5019311;28;19928;-87
2022/01/09 04:46:53;;;;;;;89.70;34.55;;;-3275.60;69.60;;;;;;5020236;28;20028;-90
2022/01/09 04:49:23;;;;;;;86.27;33.67;;;-3275.50;69.90;;;;;;5004147;28;20025;-88
2022/01/09 04:51:48;;;;;;;91.17;34.60;;;-3275.40;70.00;;;;;;5018961;28;20482;-87
2022/01/09 04:54:14;;;;;;;;;;;-3275.30;70.20;;;;;;5019987;28;20097;-89
2022/01/09 04:56:39;;;;;;;86.37;32.73;;;-3275.30;70.30;;;;;;5019173;28;19909;-89
2022/01/09 04:59:05;;;;;;;83.15;31.77;;;-3275.20;70.10;;;;;;5019537;28;20105;-90
2022/01/09 05:01:30;;;;;;;;;;;-3275.10;70.20;;;;;;5019578;28;20033;-87
2022/01/09 05:03:56;;;;;;;80.70;30.93;;;-3275.10;70.30;;;;;;5018887;28;19908;-89
2022/01/09 05:06:22;;;;;;;86.80;30.67;;;-3275.00;70.10;;;;;;5019607;28;20033;-90
2022/01/09 05:08:47;;;;;;;86.93;30.83;;;-3274.90;70.20;;;;;;5020095;28;20021;-88
2022/01/09 05:11:15;;;;;;;;;;;-3274.80;70.40;;;;;;5020070;28;20058;-89
2022/01/09 05:13:41;;;;;;;75.87;28.93;;;-3274.70;70.50;;;;;;5020309;28;20293;-88
2022/01/09 05:16:14;;;;;;;;;;;-3274.70;70.20;;;;;;5020921;28;20029;-88
2022/01/09 05:18:51;;;;;;;83.60;29.23;;;-3274.70;70.40;;;;;;5020344;28;19905;-88
2022/01/09 05:21:17;;;;;;;75.73;29.23;;;-3274.60;70.10;;;;;;5008712;28;20464;-88
2022/01/09 05:23:42;;;;;;;;;;;-3274.50;70.30;;;;;;5017942;28;20026;-88
2022/01/09 05:26:08;;;;;;;73.73;28.77;;;-3274.40;70.50;;;;;;5019699;28;19951;-88
2022/01/09 05:28:34;;;;;;;;;;;-3274.30;70.30;;;;;;5020025;28;20028;-89
2022/01/09 05:30:59;;;;;;;77.83;28.03;;;-3274.30;70.40;;;;;;5019469;28;19897;-89
2022/01/09 05:33:25;;;;;;;;;;;-3274.30;70.20;;;;;;5016196;28;20041;-89
2022/01/09 05:35:53;;;;;;;66.50;27.77;;;-3274.20;70.40;;;;;;5015790;28;19916;-86
2022/01/09 05:38:20;;;;;;;88.13;29.77;;;-3274.20;70.20;;;;;;5019713;28;20044;-88
2022/01/09 05:40:46;;;;;;;76.80;28.77;;;-3274.20;70.30;;;;;;5019103;28;20441;-88
2022/01/09 05:43:13;;;;;;;;;;;-3274.30;70.40;;;;;;5012834;28;20014;-88
2022/01/09 05:45:39;;;;;;;75.93;28.23;;;-3274.30;70.40;;;;;;5019026;28;19913;-88
2022/01/09 05:48:04;;;;;;;72.45;28.08;;;-3274.40;70.00;;;;;;5018842;28;20049;-88
2022/01/09 05:50:30;;;;;;;77.82;27.42;;;-3274.40;70.00;;;;;;5014691;28;20115;-88
2022/01/09 05:52:56;;;;;;;107.95;34.42;;;-3274.40;70.00;;;;;;5016507;28;20021;-88
2022/01/09 05:55:21;;;;;;;;;;;-3274.50;70.00;;;;;;5018671;28;20028;-89
2022/01/09 05:57:47;;;;;;;87.03;35.70;;;-3274.50;70.10;;;;;;5018637;28;19905;-89
2022/01/09 06:00:14;;;;;;;106.32;40.08;;;-3274.70;69.80;;;;;;5018892;28;20029;-88
2022/01/09 06:02:40;;;;;;;94.20;36.43;;;-3274.70;69.80;;;;;;5018722;28;20356;-89
2022/01/09 06:05:07;;;;;;;;;;;-3274.80;69.90;;;;;;5018824;28;20022;-88
2022/01/09 06:07:32;;;;;;;81.40;25.50;;;-3274.90;69.90;;;;;;5018098;28;19913;-88
2022/01/09 06:09:58;;;;;;;;;;;-3275.00;69.60;;;;;;5019280;28;20041;-88
2022/01/09 06:12:26;;;;;;;78.63;30.23;;;-3275.00;69.60;;;;;;5018404;28;19909;-89
2022/01/09 06:14:52;;;;;;;80.03;31.13;;;-3275.10;69.40;;;;;;5021651;28;20037;-88
2022/01/09 06:17:17;;;;;;;;;;;-3275.20;69.40;;;;;;5021956;28;20470;-88
2022/01/09 06:19:43;;;;;;;75.27;29.40;;;-3275.30;69.50;;;;;;5022076;28;19909;-88
2022/01/09 06:22:08;;;;;;;77.60;31.67;;;-3275.40;69.30;;;;;;5021919;28;20069;-87
2022/01/09 06:24:34;;;;;;;;;;;-3275.40;69.30;;;;;;5022246;28;20037;-88
2022/01/09 06:27:02;;;;;;;76.17;29.07;;;-3275.50;69.40;;;;;;5022256;28;19909;-86
2022/01/09 06:29:28;;;;;;;80.83;30.60;;;-3275.50;69.10;;;;;;5021008;28;20099;-88
2022/01/09 06:31:54;;;;;;;;;;;-3275.50;69.20;;;;;;5022636;28;20037;-87
2022/01/09 06:34:19;;;;;;;78.47;30.00;;;-3275.60;69.30;;;;;;5022479;28;19901;-88
2022/01/09 06:36:45;;;;;;;;;;;-3275.60;69.10;;;;;;5022174;28;20462;-88
2022/01/09 06:39:11;;;;;;;83.63;30.10;;;-3275.60;69.30;;;;;;5019570;28;19937;-88
2022/01/09 06:41:37;;;;;;;72.53;30.80;;;-3275.70;69.10;;;;;;5021971;28;20116;-88
2022/01/09 06:44:02;;;;;;;;;;;-3275.70;69.30;;;;;;5022027;28;20033;-88
2022/01/09 06:46:28;;;;;;;83.87;32.10;;;-3275.80;69.40;;;;;;5021710;28;19917;-89
2022/01/09 06:48:53;;;;;;;92.82;33.90;;;-3275.80;69.10;;;;;;5021425;28;20517;-89
2022/01/09 06:51:19;;;;;;;;;;;-3275.90;69.30;;;;;;5021891;28;20045;-90
2022/01/09 06:53:46;;;;;;;83.83;30.40;;;-3276.00;69.40;;;;;;5022706;28;19905;-89
2022/01/09 06:56:12;;;;;;;89.67;36.03;;;-3276.00;69.10;;;;;;5021507;28;20026;-90
2022/01/09 06:58:37;;;;;;;;;;;-3276.00;69.20;;;;;;5021002;28;20028;-89
2022/01/09 07:01:05;;;;;;;81.40;32.93;;;-3276.10;69.30;;;;;;5021573;28;19909;-89
2022/01/09 07:03:30;;;;;;;89.07;36.27;;;-3276.10;69.10;;;;;;5021866;28;20017;-89
2022/01/09 07:05:56;;;;;;;;;;;-3276.20;69.20;;;;;;5022289;28;20025;-89
2022/01/09 07:08:22;;;;;;;88.63;37.87;;;-3276.20;69.40;;;;;;5020265;28;20265;-89
2022/01/09 07:10:47;;;;;;;92.03;36.05;;;-3276.30;69.10;;;;;;5021491;28;20024;-89
2022/01/09 07:13:14;;;;;;;98.68;40.28;;;-3276.30;69.20;;;;;;5040027;28;20029;-89
2022/01/09 07:15:39;;;;;;;99.40;37.90;;;-3276.30;69.40;;;;;;5021743;28;20443;-90
2022/01/09 07:18:05;;;;;;;;;;;-3276.40;69.40;;;;;;5022354;28;20025;-89
2022/01/09 07:20:31;;;;;;;92.50;33.97;;;-3276.50;69.50;;;;;;5021482;28;19890;-90
2022/01/09 07:22:56;;;;;;;68.53;30.48;;;-3276.50;69.20;;;;;;5020767;28;20095;-90
2022/01/09 07:25:25;;;;;;;89.97;36.88;;;-3276.50;69.30;;;;;;5021029;28;20024;-90
2022/01/09 07:27:50;;;;;;;89.80;35.87;;;-3276.50;69.40;;;;;;5020253;28;20087;-90
2022/01/09 07:30:16;;;;;;;;;;;-3276.50;69.50;;;;;;5021551;28;20378;-89
2022/01/09 07:32:41;;;;;;;91.53;34.47;;;-3276.60;69.60;;;;;;5020949;28;19930;-88
2022/01/09 07:35:07;;;;;;;;;;;-3276.70;69.30;;;;;;5021927;28;20554;-90
2022/01/09 07:37:33;;;;;;;88.07;34.47;;;-3276.70;69.40;;;;;;5020463;28;20011;-88
2022/01/09 07:39:59;;;;;;;96.63;37.72;;;-3276.70;69.10;;;;;;5020987;28;20414;-89
2022/01/09 07:42:25;;;;;;;91.97;37.53;;;0.00;69.30;;;;;;5020540;28;20426;-88
2022/01/09 07:44:51;;;;;;;;;;;0.00;69.40;;;;;;5021656;28;20115;-88
2022/01/09 07:47:16;;;;;;;91.17;37.10;;;0.00;69.40;;;;;;5019370;28;19909;-87
2022/01/09 07:49:42;;;;;;;95.60;39.13;;;0.10;69.10;;;;;;5019909;28;20457;-88
2022/01/09 07:52:07;;;;;;;;;;;0.20;69.20;;;;;;5020138;28;20117;-88
2022/01/09 07:54:33;;;;;;;93.50;37.83;;;0.20;69.30;;;;;;5019241;28;19913;-88
2022/01/09 07:56:58;;;;;;;120.15;48.75;;;0.30;69.00;;;;;;5019776;28;20049;-87
2022/01/09 07:59:24;;;;;;;116.15;45.40;;;0.30;69.10;;;;;;5037604;28;20029;-88
2022/01/09 08:01:50;;;;;;;;;;;0.40;69.20;;;;;;5020400;28;20378;-87
2022/01/09 08:04:16;;;;;;;103.67;39.30;;;0.50;69.30;;;;;;5019010;28;19920;-88
2022/01/09 08:06:41;;;;;;;;;;;0.50;69.00;;;;;;5021790;28;20033;-93
2022/01/09 08:09:07;;;;;;;93.50;39.40;;;0.60;69.20;;;;;;5025051;28;20290;-87
2022/01/09 08:11:37;;;;;;;;;;;0.60;69.00;;;;;;5027805;28;20471;-88
2022/01/09 08:14:03;;;;;;;99.70;41.90;;;0.70;69.20;;;;;;5019893;28;19916;-89
2022/01/09 08:16:29;;;;;;;;;;;0.70;69.00;;;;;;5019569;28;20021;-87
2022/01/09 08:18:54;;;;;;;98.97;41.87;;;0.70;69.20;;;;;;5018794;28;19909;-88
2022/01/09 08:21:20;;;;;;;;;;;0.70;69.00;;;;;;5019183;28;20026;-88
2022/01/09 08:23:47;;;;;;;86.27;34.40;;;0.80;69.30;;;;;;5018854;28;19909;-89
2022/01/09 08:26:14;;;;;;;84.50;35.07;;;0.80;69.10;;;;;;5018379;28;20099;-85
2022/01/09 08:28:44;;;;;;;82.23;32.00;;;0.80;69.20;;;;;;5018060;28;20144;-88
2022/01/09 08:31:10;;;;;;;92.20;35.63;;;0.80;69.30;;;;;;5018631;28;20033;-87
2022/01/09 08:33:36;;;;;;;84.77;35.00;;;0.80;69.30;;;;;;5020373;28;20072;-91
2022/01/09 08:36:04;;;;;;;;;;;0.80;69.40;;;;;;5026898;28;20033;-92
2022/01/09 08:41:09;;;;;;;80.40;32.73;;;0.80;69.30;;;;;;5328607;22;20394;-90
2022/01/09 08:43:38;;;;;;;85.10;34.73;;;0.70;69.10;;;;;;5065145;28;20427;-91
2022/01/09 08:46:04;;;;;;;82.07;35.07;;;0.70;69.30;;;;;;5063162;28;20084;-87
2022/01/09 08:48:30;;;;;;;83.67;33.63;;;0.70;69.40;;;;;;5061661;28;20020;-90
2022/01/09 08:50:55;;;;;;;;;;;0.70;69.40;;;;;;5054263;28;20055;-85
2022/01/09 08:53:40;;;;;;;77.30;32.40;;;0.80;69.40;;;;;;5049695;28;19908;-84
2022/01/09 08:56:06;;;;;;;90.70;32.47;;;0.80;69.10;;;;;;5028772;28;20031;-85
2022/01/09 08:58:32;;;;;;;;;;;0.80;69.10;;;;;;5054806;28;20079;-85
2022/01/09 09:01:01;;;;;;;79.20;29.70;;;0.80;69.10;;;;;;5043287;28;19917;-84
2022/01/09 09:03:26;;;;;;;76.77;30.87;;;0.80;68.80;;;;;;5044022;28;20047;-84
2022/01/09 09:05:52;;;;;;;;;;;0.80;68.90;;;;;;5036378;28;20477;-84
2022/01/09 09:08:18;;;;;;;63.17;27.50;;;0.90;69.00;;;;;;5034209;28;20336;-85
2022/01/09 09:10:43;;;;;;;;;;;0.90;68.70;;;;;;5022050;28;20386;-84
2022/01/09 09:13:09;;;;;;;67.93;25.97;;;0.90;68.80;;;;;;5037043;28;19920;-95
2022/01/09 09:15:35;;;;;;;57.25;25.23;;;1.00;68.50;;;;;;5020538;28;20030;-83
2022/01/09 09:18:01;;;;;;;66.70;27.80;;;1.00;68.60;;;;;;5054971;28;20028;-91
2022/01/09 09:20:27;;;;;;;78.50;31.38;;;1.00;68.60;;;;;;5060420;28;20024;-91
2022/01/09 09:22:53;;;;;;;73.15;30.85;;;1.10;68.60;;;;;;5029665;28;20010;-91
2022/01/09 09:25:19;;;;;;;68.20;27.67;;;1.10;68.60;;;;;;5019744;28;20363;-89
2022/01/09 09:27:45;;;;;;;65.60;27.45;;;1.20;68.50;;;;;;5019625;28;20052;-89
2022/01/09 09:30:14;;;;;;;62.80;25.87;;;1.20;68.50;;;;;;5018900;28;20060;-91
2022/01/09 09:32:40;;;;;;;47.93;21.63;;;1.40;68.30;;;;;;5020298;28;20010;-90
2022/01/09 09:35:06;;;;;;;51.50;21.83;;;1.40;68.20;;;;;;5020224;28;20025;-90
2022/01/09 09:37:32;;;;;;;;;;;1.50;68.00;;;;;;5024543;28;20030;-89
2022/01/09 09:39:58;;;;;;;49.37;19.40;;;1.70;67.90;;;;;;5072987;28;19916;-90
2022/01/09 09:42:24;;;;;;;50.20;19.00;;;1.80;67.60;;;;;;5067109;28;20027;-96
2022/01/09 09:44:49;;;;;;;;;;;1.80;67.50;;;;;;5066497;28;20022;-96
2022/01/09 09:47:19;;;;;;;43.97;17.37;;;1.90;67.40;;;;;;5067821;28;19916;-96
2022/01/09 09:49:49;;;;;;;56.40;21.03;;;2.00;67.00;;;;;;5069818;28;20395;-96
2022/01/09 09:52:18;;;;;;;47.23;20.93;;;2.10;66.90;;;;;;5068439;28;20028;-96
2022/01/09 09:54:46;;;;;;;44.07;19.67;;;2.10;66.90;;;;;;5068571;28;20001;-95
2022/01/09 09:57:14;;;;;;;47.67;20.40;;;2.30;66.70;;;;;;5067370;28;20024;-96
2022/01/09 09:59:40;;;;;;;45.30;19.20;;;2.30;66.70;;;;;;5068025;28;20036;-94
2022/01/09 10:02:11;;;;;;;44.45;17.05;;;2.40;66.60;;;;;;5070426;28;20020;-96
2022/01/09 10:04:37;;;;;;;41.77;17.70;;;2.60;66.30;;;;;;5068237;28;20016;-96
2022/01/09 10:07:03;;;;;;;37.90;16.17;;;2.70;66.10;;;;;;5067645;28;20029;-94
2022/01/09 10:09:29;;;;;;;47.20;18.42;;;3.00;65.80;;;;;;5069140;28;20042;-96
2022/01/09 10:12:10;;;;;;;41.20;18.10;;;3.60;65.00;;;;;;5067673;28;20078;-96
2022/01/09 10:14:36;;;;;;;44.67;19.37;;;4.60;63.10;;;;;;5069714;28;20048;-93
2022/01/09 10:17:11;;;;;;;45.53;19.02;;;5.80;60.90;;;;;;5069154;28;20428;-95
2022/01/09 10:20:05;;;;;;;;;;;;;;;;;;;;;
2022/01/09 10:22:43;;;;;;;48.70;22.33;;;8.30;56.30;;;;;;5077365;28;20116;-91
2022/01/09 10:25:35;;;;;;;40.93;18.83;;;9.40;54.50;;;;;;5042291;28;20064;-86
2022/01/09 10:28:08;;;;;;;43.42;19.75;;;10.30;52.70;;;;;;5020044;28;20051;-85
2022/01/09 10:30:43;;;;;;;42.10;20.42;;;11.00;52.10;;;;;;5020009;28;20359;-86
2022/01/09 10:33:21;;;;;;;47.08;21.25;;;11.80;50.30;;;;;;5052969;28;20090;-86
2022/01/09 10:35:48;;;;;;;43.03;21.00;;;12.60;48.80;;;;;;5020221;28;20029;-85
2022/01/09 10:38:22;;;;;;;41.90;22.30;;;13.30;48.00;;;;;;5050701;28;20035;-87
2022/01/09 10:40:57;;;;;;;41.10;19.80;;;13.90;46.00;;;;;;5059852;28;20097;-88
2022/01/09 10:43:35;;;;;;;37.63;19.73;;;14.60;45.10;;;;;;5060419;28;20120;-87
2022/01/09 10:46:01;;;;;;;39.35;21.25;;;15.20;43.90;;;;;;5035218;28;20022;-86
2022/01/09 10:48:35;;;;;;;44.15;22.02;;;15.80;42.60;;;;;;5020083;28;20025;-86
2022/01/09 10:51:03;;;;;;;38.80;20.90;;;16.20;40.50;;;;;;5020200;28;20030;-87
2022/01/09 10:53:31;;;;;;;38.97;20.83;;;16.40;40.50;;;;;;5030308;28;20119;-87
2022/01/09 10:56:01;;;;;;;38.35;22.35;;;16.60;39.70;;;;;;5059543;28;20075;-88
2022/01/09 10:58:27;;;;;;;38.03;20.77;;;16.50;39.10;;;;;;5043540;28;20063;-87
2022/01/09 11:01:14;;;;;;;42.10;21.10;;;16.50;38.80;;;;;;5035610;28;20021;-86
2022/01/09 11:03:42;;;;;;;37.58;19.35;;;16.10;37.80;;;;;;5035418;28;20025;-86
2022/01/09 11:06:11;;;;;;;40.35;20.98;;;15.60;38.80;;;;;;5035501;28;20022;-84
2022/01/09 11:08:38;;;;;;;38.65;20.55;;;15.10;38.90;;;;;;5055659;28;20481;-85
2022/01/09 11:11:10;;;;;;;35.28;18.75;;;14.50;39.10;;;;;;5034511;28;20474;-86
2022/01/09 11:13:40;;;;;;;35.45;17.98;;;14.00;39.00;;;;;;5036768;28;20025;-86
2022/01/09 11:18:51;;;;;;;30.58;17.05;;;13.00;39.50;;;;;;5036928;28;20130;-85
2022/01/09 11:21:17;;;;;;;29.55;16.17;;;12.40;40.10;;;;;;5018885;28;20017;-86
2022/01/09 11:24:01;;;;;;;;;;;12.10;40.40;;;;;;5019385;28;20063;-85
2022/01/09 11:26:40;;;;;;;30.35;15.77;;;11.80;41.00;;;;;;5035295;28;19976;-85
2022/01/09 11:29:08;;;;;;;25.63;13.48;;;11.50;41.20;;;;;;5018796;28;20025;-86
2022/01/09 11:32:08;;;;;;;26.02;12.15;;;11.20;41.40;;;;;;5046368;28;20495;-86
2022/01/09 11:35:11;;;;;;;21.58;10.18;;;11.00;40.90;;;;;;5058716;28;20024;-86
2022/01/09 11:38:08;;;;;;;20.95;10.07;;;11.10;40.70;;;;;;5057392;28;20075;-85
2022/01/09 11:40:34;;;;;;;21.33;10.80;;;11.20;40.60;;;;;;5038718;28;20048;-85
2022/01/09 11:43:04;;;;;;;21.10;10.82;;;11.30;40.70;;;;;;5057932;28;20021;-86
2022/01/09 11:45:49;;;;;;;21.80;10.57;;;11.40;40.30;;;;;;5033178;28;20032;-85
2022/01/09 11:48:20;;;;;;;19.95;10.25;;;11.40;39.70;;;;;;5018036;28;20033;-85
2022/01/09 11:51:06;;;;;;;22.80;10.93;;;11.40;40.10;;;;;;5018480;28;20095;-85
2022/01/09 11:53:53;;;;;;;21.40;11.40;;;11.30;39.80;;;;;;5017905;28;20076;-85
2022/01/09 11:56:56;;;;;;;21.95;11.75;;;11.30;39.80;;;;;;5018457;28;20128;-84
2022/01/09 11:59:48;;;;;;;19.92;9.05;;;11.30;39.70;;;;;;5014504;28;20037;-85
2022/01/09 12:02:16;;;;;;;18.58;10.63;;;10.90;39.20;;;;;;5018305;28;20031;-85
2022/01/09 12:08:15;;;;;;;18.15;8.00;;;10.50;39.80;;;;;;5065618;28;20041;-89
2022/01/09 12:10:49;;;;;;;18.85;9.07;;;10.50;40.00;;;;;;5042795;28;20024;-93
2022/01/09 12:13:39;;;;;;;17.95;8.00;;;10.70;39.80;;;;;;5037027;28;20025;-93
2022/01/09 12:16:07;;;;;;;17.73;9.40;;;10.80;39.10;;;;;;5039690;28;20072;-91
2022/01/09 12:18:43;;;;;;;19.27;9.77;;;10.90;39.20;;;;;;5025480;28;20033;-85
2022/01/09 12:21:19;;;;;;;33.65;12.88;;;10.80;38.90;;;;;;5021240;28;20500;-85
2022/01/09 12:23:44;;;;;;;24.02;12.75;;;11.00;39.20;;;;;;5021144;28;20026;-85
2022/01/09 12:26:28;;;;;;;;;;;11.30;39.20;;;;;;5051611;28;20406;-85
2022/01/09 12:28:54;;;;;;;23.90;11.02;;;11.50;39.30;;;;;;5060772;28;20296;-86
2022/01/09 12:31:24;;;;;;;;;;;11.90;38.70;;;;;;5042258;28;20025;-86
2022/01/09 12:33:50;;;;;;;20.05;9.82;;;12.40;38.60;;;;;;5038715;28;19905;-87
2022/01/09 12:36:18;;;;;;;16.98;9.50;;;12.90;37.90;;;;;;5021333;28;20021;-87
2022/01/09 12:38:55;;;;;;;18.63;9.98;;;13.30;37.20;;;;;;5026399;28;21963;-87
2022/01/09 12:41:27;;;;;;;18.58;9.70;;;13.90;36.20;;;;;;5061081;28;20036;-87
2022/01/09 12:44:00;;;;;;;17.48;10.50;;;14.30;35.80;;;;;;5021710;28;20079;-87
2022/01/09 12:53:26;;;;;;;22.08;10.73;;;15.40;34.40;;;;;;5063756;28;20074;-86
2022/01/09 12:56:08;;;;;;;18.15;9.65;;;15.70;34.10;;;;;;5043871;28;20020;-86
2022/01/09 12:58:39;;;;;;;22.27;10.75;;;15.80;34.00;;;;;;5061066;28;20013;-85
2022/01/09 13:01:16;;;;;;;20.30;10.25;;;15.70;33.90;;;;;;5060112;28;20078;-87
2022/01/09 13:03:47;;;;;;;23.45;10.77;;;15.30;33.80;;;;;;5060894;28;20032;-86
2022/01/09 13:06:16;;;;;;;25.83;11.25;;;14.60;34.00;;;;;;5039243;28;20460;-91
2022/01/09 13:08:47;;;;;;;21.02;10.93;;;14.10;34.40;;;;;;5053355;28;20025;-91